Brainerd, Minnesota
Current Conditions -  °F | °C
As of 11:53 AM on Thursday 29 Jan 2015 (Local Time) from KBRD Reporting Station
Overcast Overcast  
Wind Chill:   Ceiling: 2100
Heat Index: 21°   Visibility: 10mi
Dew Point: 13°   Wind: 17mph
Humidity: 71%   Direction: 330°NNW
Pressure: 30.28"   Gusts: 24mph
Location:  46.35°N, 94.2°W
Report Text: KBRD 291753Z AUTO 33015G21KT 10SM OVC021 M06/M11 A3028 RMK AO2 SLP274 T10611106 11033 21067 51028
Loading
Personal Weather Stations






























Interactive Weather Map New forecast layout! Learn more

10-Day Weather Forecast

Advertisements
Track Severe Weather on mobile